Terminal Aerodrome Forecast
Issued by NWS

Home | Current Version | Previous Version | Text Only | Print | Product List | Glossary On
Versions: 1 2 3 4 5 6 7 8 9 10 11 12 13 14 15 16 17 18 19 20 21 22 23 24 25 26 27 28 29
000
FTPA31 PHFO 161500 AAA
TAFLIH
TAF AMD
PHLI 161516Z 1615/1712 04017KT P6SM VCSH SCT022 BKN035
      TEMPO 1615/1616 SCT020 BKN030
     FM161900 05016KT P6SM FEW025 SCT040
     FM170600 05013KT P6SM VCSH SCT023 BKN040=

USA.gov is the U.S. government's official web portal to all federal, state and local government web resources and services.